createdAt,value
2016-05-29T00:00:03.026Z,15.5
2016-05-29T00:00:12.963Z,15.5
2016-05-29T00:00:22.963Z,15.5
2016-05-29T00:00:32.963Z,15.6
2016-05-29T00:00:42.963Z,15.6
2016-05-29T00:00:52.998Z,15.6
2016-05-29T00:01:02.982Z,15.5
2016-05-29T00:01:12.966Z,15.5
2016-05-29T00:01:22.951Z,15.6
2016-05-29T00:01:45.469Z,15.5
2016-05-29T00:01:51.751Z,15.6
2016-05-29T00:02:01.719Z,15.6
2016-05-29T00:02:11.719Z,15.6
2016-05-29T00:02:21.704Z,15.6
2016-05-29T00:02:31.719Z,15.6
2016-05-29T00:02:41.704Z,15.6
2016-05-29T00:02:51.690Z,15.6
2016-05-29T00:03:01.706Z,15.5
2016-05-29T00:03:11.690Z,15.5
2016-05-29T00:03:21.690Z,15.5
2016-05-29T00:03:31.706Z,15.5
2016-05-29T00:03:41.706Z,15.5
2016-05-29T00:03:51.693Z,15.5
2016-05-29T00:04:01.709Z,15.5
2016-05-29T00:04:11.678Z,15.5
2016-05-29T00:04:21.678Z,15.5
2016-05-29T00:04:31.678Z,15.5
2016-05-29T00:04:41.678Z,15.5
2016-05-29T00:04:51.681Z,15.5
2016-05-29T00:05:01.556Z,15.5
2016-05-29T00:05:11.837Z,15.5
2016-05-29T00:05:21.681Z,15.5
2016-05-29T00:05:31.665Z,15.5
2016-05-29T00:05:42.556Z,15.5
2016-05-29T00:05:51.684Z,15.5
2016-05-29T00:06:01.684Z,15.5
2016-05-29T00:06:12.418Z,15.5
2016-05-29T00:06:21.652Z,15.5
2016-05-29T00:06:31.652Z,15.5
2016-05-29T00:06:41.637Z,15.5
2016-05-29T00:06:51.639Z,15.5
2016-05-29T00:07:01.654Z,15.5
2016-05-29T00:07:11.654Z,15.5
2016-05-29T00:07:21.639Z,15.5
2016-05-29T00:07:31.639Z,15.5
2016-05-29T00:07:41.623Z,15.5
2016-05-29T00:07:51.626Z,15.5
2016-05-29T00:08:01.626Z,15.4
2016-05-29T00:08:11.626Z,15.4
2016-05-29T00:08:21.626Z,15.4
2016-05-29T00:08:31.626Z,15.4
2016-05-29T00:08:41.485Z,15.4
2016-05-29T00:08:51.473Z,15.4
2016-05-29T00:09:01.629Z,15.4
2016-05-29T00:09:11.613Z,15.4
2016-05-29T00:09:21.629Z,15.4
2016-05-29T00:09:31.629Z,15.4
2016-05-29T00:09:41.613Z,15.4
2016-05-29T00:09:51.600Z,15.4
2016-05-29T00:10:01.600Z,15.4
2016-05-29T00:10:11.459Z,15.4
2016-05-29T00:10:21.615Z,15.4
2016-05-29T00:10:31.600Z,15.4
2016-05-29T00:10:41.600Z,15.4
2016-05-29T00:10:51.587Z,15.4
2016-05-29T00:11:01.587Z,15.4
2016-05-29T00:11:11.587Z,15.3
2016-05-29T00:11:21.603Z,15.3
2016-05-29T00:11:32.728Z,15.3
2016-05-29T00:11:43.947Z,15.3
2016-05-29T00:11:53.886Z,15.3
2016-05-29T00:12:05.792Z,15.3
2016-05-29T00:12:17.667Z,15.3
2016-05-29T00:12:29.324Z,15.3
2016-05-29T00:12:41.324Z,15.3
2016-05-29T00:12:53.218Z,15.3
2016-05-29T00:13:01.921Z,15.3
2016-05-29T00:13:11.921Z,15.3
2016-05-29T00:13:21.921Z,15.3
2016-05-29T00:13:31.921Z,15.2
2016-05-29T00:13:41.921Z,15.3
2016-05-29T00:13:51.923Z,15.2
2016-05-29T00:14:01.923Z,15.3
2016-05-29T00:14:11.923Z,15.2
2016-05-29T00:14:21.908Z,15.2
2016-05-29T00:14:31.908Z,15.2
2016-05-29T00:14:41.908Z,15.2
2016-05-29T00:14:51.910Z,15.2
2016-05-29T00:15:01.894Z,15.2
2016-05-29T00:15:11.910Z,15.2
2016-05-29T00:15:21.894Z,15.2
2016-05-29T00:15:31.910Z,15.2
2016-05-29T00:15:41.894Z,15.2
2016-05-29T00:15:51.897Z,15.2
2016-05-29T00:16:01.897Z,15.2
2016-05-29T00:16:11.881Z,15.2
2016-05-29T00:16:21.881Z,15.2
2016-05-29T00:16:31.866Z,15.1
2016-05-29T00:16:41.866Z,15.1
2016-05-29T00:16:51.869Z,15.1
2016-05-29T00:17:01.884Z,15.1
2016-05-29T00:17:11.869Z,15.1
2016-05-29T00:17:21.869Z,15.1
2016-05-29T00:17:31.869Z,15.1
2016-05-29T00:17:41.869Z,15.1
2016-05-29T00:17:51.856Z,15.1
2016-05-29T00:18:01.856Z,15.1
2016-05-29T00:18:11.856Z,15.1
2016-05-29T00:18:21.856Z,15.1
2016-05-29T00:18:31.856Z,15.1
2016-05-29T00:18:42.153Z,15.1
2016-05-29T00:18:53.062Z,15.1
2016-05-29T00:19:04.422Z,15.1
2016-05-29T00:19:16.062Z,15.1
2016-05-29T00:19:27.640Z,15.1
2016-05-29T00:19:39.359Z,15.1
2016-05-29T00:19:51.017Z,15.1
2016-05-29T00:20:03.283Z,15
2016-05-29T00:20:15.314Z,15
2016-05-29T00:20:26.877Z,15
2016-05-29T00:20:37.986Z,15
2016-05-29T00:20:49.005Z,15.1
2016-05-29T00:21:00.380Z,15.1
2016-05-29T00:21:12.270Z,15.1
2016-05-29T00:21:21.020Z,15.1
2016-05-29T00:21:31.020Z,15.1
2016-05-29T00:21:41.020Z,15.1
2016-05-29T00:21:51.055Z,15.1
2016-05-29T00:22:01.039Z,15.1
2016-05-29T00:22:11.023Z,15.1
2016-05-29T00:22:21.039Z,15.1
2016-05-29T00:22:31.008Z,15.1
2016-05-29T00:22:41.008Z,15.2
2016-05-29T00:22:51.025Z,15.2
2016-05-29T00:23:01.025Z,15.2
2016-05-29T00:23:11.041Z,15.2
2016-05-29T00:23:21.010Z,15.2
2016-05-29T00:23:31.041Z,15.2
2016-05-29T00:23:40.994Z,15.2
2016-05-29T00:23:51.013Z,15.1
2016-05-29T00:24:00.997Z,15.2
2016-05-29T00:24:11.013Z,15.2
2016-05-29T00:24:20.997Z,15.2
2016-05-29T00:24:30.997Z,15.2
2016-05-29T00:24:41.013Z,15.2
2016-05-29T00:24:50.985Z,15.2
2016-05-29T00:25:01.000Z,15.2
2016-05-29T00:25:10.985Z,15.1
2016-05-29T00:25:20.985Z,15.2
2016-05-29T00:25:30.985Z,15.2
2016-05-29T00:25:40.985Z,15.2
2016-05-29T00:25:50.987Z,15.2
2016-05-29T00:26:00.955Z,15.2
2016-05-29T00:26:10.971Z,15.2
2016-05-29T00:26:21.033Z,15.2
2016-05-29T00:26:30.955Z,15.2
2016-05-29T00:26:40.971Z,15.2
2016-05-29T00:26:50.958Z,15.2
2016-05-29T00:27:00.974Z,15.2
2016-05-29T00:27:10.958Z,15.2
2016-05-29T00:27:20.943Z,15.2
2016-05-29T00:27:30.958Z,15.2
2016-05-29T00:27:40.943Z,15.2
2016-05-29T00:27:50.960Z,15.2
2016-05-29T00:28:00.945Z,15.2
2016-05-29T00:28:10.929Z,15.2
2016-05-29T00:28:20.945Z,15.2
2016-05-29T00:28:30.945Z,15.3
2016-05-29T00:28:40.929Z,15.3
2016-05-29T00:28:50.948Z,15.3
2016-05-29T00:29:00.932Z,15.3
2016-05-29T00:29:10.932Z,15.3
2016-05-29T00:29:20.916Z,15.3
2016-05-29T00:29:30.916Z,15.3
2016-05-29T00:29:40.916Z,15.3
2016-05-29T00:29:50.919Z,15.4
2016-05-29T00:30:00.919Z,15.4
2016-05-29T00:30:10.919Z,15.4
2016-05-29T00:30:20.919Z,15.4
2016-05-29T00:30:30.904Z,15.4
2016-05-29T00:30:40.904Z,15.4
2016-05-29T00:30:50.907Z,15.5
2016-05-29T00:31:00.907Z,15.5
2016-05-29T00:31:10.891Z,15.5
2016-05-29T00:31:20.891Z,15.5
2016-05-29T00:31:30.907Z,15.5
2016-05-29T00:31:40.891Z,15.5
2016-05-29T00:31:50.909Z,15.5
2016-05-29T00:32:00.878Z,15.5
2016-05-29T00:32:10.878Z,15.5
2016-05-29T00:32:20.878Z,15.5
2016-05-29T00:32:30.878Z,15.5
2016-05-29T00:32:40.893Z,15.5
2016-05-29T00:32:50.896Z,15.5
2016-05-29T00:33:00.881Z,15.5
2016-05-29T00:33:10.881Z,15.5
2016-05-29T00:33:20.865Z,15.5
2016-05-29T00:33:30.865Z,15.5
2016-05-29T00:33:40.865Z,15.6
2016-05-29T00:33:50.868Z,15.6
2016-05-29T00:34:00.868Z,15.6
2016-05-29T00:34:10.868Z,15.6
2016-05-29T00:34:20.696Z,15.6
2016-05-29T00:34:30.852Z,15.6
2016-05-29T00:34:40.712Z,15.6
2016-05-29T00:34:50.699Z,15.6
2016-05-29T00:35:01.527Z,15.6
2016-05-29T00:35:10.855Z,15.6
2016-05-29T00:35:20.762Z,15.6
2016-05-29T00:35:31.246Z,15.6
2016-05-29T00:35:41.012Z,15.6
2016-05-29T00:35:50.842Z,15.7
2016-05-29T00:36:00.842Z,15.7
2016-05-29T00:36:10.904Z,15.6
2016-05-29T00:36:20.842Z,15.7
2016-05-29T00:36:30.842Z,15.6
2016-05-29T00:36:40.810Z,15.7
2016-05-29T00:36:50.829Z,15.6
2016-05-29T00:37:00.813Z,15.6
2016-05-29T00:37:10.829Z,15.6
2016-05-29T00:37:20.813Z,15.6
2016-05-29T00:37:30.813Z,15.6
2016-05-29T00:37:40.813Z,15.6
2016-05-29T00:37:50.815Z,15.6
2016-05-29T00:38:00.800Z,15.6
2016-05-29T00:38:10.659Z,15.6
2016-05-29T00:38:20.800Z,15.6
2016-05-29T00:38:30.800Z,15.6
2016-05-29T00:38:40.800Z,15.6
2016-05-29T00:38:50.803Z,15.6
2016-05-29T00:39:00.787Z,15.6
2016-05-29T00:39:10.834Z,15.5
2016-05-29T00:39:21.818Z,15.5
2016-05-29T00:39:33.256Z,15.5
2016-05-29T00:39:44.787Z,15.5
2016-05-29T00:39:56.368Z,15.6
2016-05-29T00:40:07.743Z,15.6
2016-05-29T00:40:16.353Z,15.6
2016-05-29T00:40:26.509Z,15.6
2016-05-29T00:40:36.509Z,15.6
2016-05-29T00:40:46.681Z,15.6
2016-05-29T00:40:56.512Z,15.6
2016-05-29T00:41:06.512Z,15.6
2016-05-29T00:41:16.512Z,15.6
2016-05-29T00:41:26.340Z,15.6
2016-05-29T00:41:36.496Z,15.6
2016-05-29T00:41:46.496Z,15.6
2016-05-29T00:41:56.514Z,15.6
2016-05-29T00:42:06.483Z,15.6
2016-05-29T00:42:16.483Z,15.6
2016-05-29T00:42:26.530Z,15.6
2016-05-29T00:42:36.483Z,15.6
2016-05-29T00:42:46.498Z,15.6
2016-05-29T00:42:56.486Z,15.6
2016-05-29T00:43:06.486Z,15.6
2016-05-29T00:43:16.486Z,15.6
2016-05-29T00:43:26.314Z,15.6
2016-05-29T00:43:36.470Z,15.6
2016-05-29T00:43:46.470Z,15.5
2016-05-29T00:43:56.473Z,15.6
2016-05-29T00:44:06.473Z,15.6
2016-05-29T00:44:16.473Z,15.6
2016-05-29T00:44:26.473Z,15.6
2016-05-29T00:44:36.457Z,15.6
2016-05-29T00:44:46.457Z,15.6
2016-05-29T00:44:56.459Z,15.6
2016-05-29T00:45:06.444Z,15.6
2016-05-29T00:45:16.444Z,15.6
2016-05-29T00:45:26.444Z,15.6
2016-05-29T00:45:36.444Z,15.6
2016-05-29T00:45:46.428Z,15.6
2016-05-29T00:45:56.447Z,15.6
2016-05-29T00:46:06.291Z,15.6
2016-05-29T00:46:16.478Z,15.6
2016-05-29T00:46:26.447Z,15.7
2016-05-29T00:46:36.275Z,15.6
2016-05-29T00:46:46.728Z,15.6
2016-05-29T00:46:56.419Z,15.7
2016-05-29T00:47:06.434Z,15.7
2016-05-29T00:47:16.419Z,15.7
2016-05-29T00:47:26.778Z,15.7
2016-05-29T00:47:36.434Z,15.7
2016-05-29T00:47:46.419Z,15.7
2016-05-29T00:47:56.421Z,15.7
2016-05-29T00:48:06.421Z,15.7
2016-05-29T00:48:16.264Z,15.7
2016-05-29T00:48:26.249Z,15.7
2016-05-29T00:48:36.405Z,15.7
2016-05-29T00:48:46.421Z,15.7
2016-05-29T00:48:56.408Z,15.7
2016-05-29T00:49:06.392Z,15.7
2016-05-29T00:49:16.392Z,15.7
2016-05-29T00:49:26.408Z,15.7
2016-05-29T00:49:36.392Z,15.7
2016-05-29T00:49:46.252Z,15.7
2016-05-29T00:49:56.395Z,15.7
2016-05-29T00:50:06.380Z,15.7
2016-05-29T00:50:16.380Z,15.7
2016-05-29T00:50:26.395Z,15.7
2016-05-29T00:50:36.255Z,15.7
2016-05-29T00:50:48.163Z,15.7
2016-05-29T00:51:00.429Z,15.7
2016-05-29T00:51:09.194Z,15.7
2016-05-29T00:51:19.507Z,15.7
2016-05-29T00:51:29.210Z,15.7
2016-05-29T00:51:39.007Z,15.7
2016-05-29T00:51:49.167Z,15.7
2016-05-29T00:51:59.183Z,15.7
2016-05-29T00:52:09.198Z,15.7
2016-05-29T00:52:19.183Z,15.7
2016-05-29T00:52:29.183Z,15.7
2016-05-29T00:52:39.026Z,15.7
2016-05-29T00:52:49.028Z,15.8
2016-05-29T00:52:59.169Z,15.8
2016-05-29T00:53:09.169Z,15.8
2016-05-29T00:53:19.153Z,15.8
2016-05-29T00:53:29.138Z,15.8
2016-05-29T00:53:39.122Z,15.8
2016-05-29T00:53:49.156Z,15.8
2016-05-29T00:53:59.125Z,15.8
2016-05-29T00:54:09.156Z,15.8
2016-05-29T00:54:19.125Z,15.8
2016-05-29T00:54:29.125Z,15.8
2016-05-29T00:54:39.141Z,15.8
2016-05-29T00:54:49.143Z,15.8
2016-05-29T00:54:59.127Z,15.8
2016-05-29T00:55:09.111Z,15.8
2016-05-29T00:55:19.127Z,15.8
2016-05-29T00:55:29.111Z,15.8
2016-05-29T00:55:39.127Z,15.8
2016-05-29T00:55:49.114Z,15.8
2016-05-29T00:55:59.130Z,15.8
2016-05-29T00:56:09.146Z,15.8
2016-05-29T00:56:19.099Z,15.8
2016-05-29T00:56:29.130Z,15.8
2016-05-29T00:56:39.130Z,15.8
2016-05-29T00:56:49.085Z,15.8
2016-05-29T00:56:59.101Z,15.8
2016-05-29T00:57:09.085Z,15.8
2016-05-29T00:57:19.085Z,15.9
2016-05-29T00:57:29.132Z,15.9
2016-05-29T00:57:39.085Z,15.9
2016-05-29T00:57:49.089Z,15.9
2016-05-29T00:57:59.105Z,15.9
2016-05-29T00:58:09.105Z,15.9
2016-05-29T00:58:18.917Z,15.9
2016-05-29T00:58:29.074Z,15.9
2016-05-29T00:58:39.074Z,15.9
2016-05-29T00:58:49.076Z,15.9
2016-05-29T00:58:59.122Z,15.9
2016-05-29T00:59:09.076Z,15.9
2016-05-29T00:59:19.076Z,15.9
2016-05-29T00:59:29.076Z,15.9
2016-05-29T00:59:39.060Z,15.9
2016-05-29T00:59:49.062Z,15.9
2016-05-29T00:59:59.046Z,15.9
2016-05-29T01:00:09.078Z,15.9
2016-05-29T01:00:19.046Z,15.9
2016-05-29T01:00:29.046Z,15.9
2016-05-29T01:00:39.062Z,15.9
2016-05-29T01:00:49.894Z,15.9
2016-05-29T01:00:59.035Z,15.9
2016-05-29T01:01:09.035Z,15.9
2016-05-29T01:01:19.035Z,16
2016-05-29T01:01:29.035Z,16
2016-05-29T01:01:39.035Z,16
2016-05-29T01:01:49.037Z,16
2016-05-29T01:01:59.037Z,15.9
2016-05-29T01:02:09.021Z,16
2016-05-29T01:02:19.005Z,16
2016-05-29T01:02:29.005Z,16
2016-05-29T01:02:39.005Z,15.9
2016-05-29T01:02:49.665Z,16
2016-05-29T01:03:00.633Z,16
2016-05-29T01:03:11.368Z,16
2016-05-29T01:03:20.790Z,16
2016-05-29T01:03:30.774Z,16
2016-05-29T01:03:40.712Z,16
2016-05-29T01:03:50.714Z,16
2016-05-29T01:04:00.745Z,16
2016-05-29T01:04:10.698Z,16
2016-05-29T01:04:20.682Z,16
2016-05-29T01:04:30.698Z,16
2016-05-29T01:04:40.557Z,16
2016-05-29T01:04:50.685Z,16
2016-05-29T01:05:00.685Z,16
2016-05-29T01:05:10.779Z,16
2016-05-29T01:05:20.685Z,16.1
2016-05-29T01:05:30.685Z,16
2016-05-29T01:05:40.701Z,16.1
2016-05-29T01:05:51.126Z,16.1
2016-05-29T01:06:00.673Z,16.1
2016-05-29T01:06:10.516Z,16.1
2016-05-29T01:06:20.704Z,16.1
2016-05-29T01:06:30.673Z,16.1
2016-05-29T01:06:40.688Z,16.1
2016-05-29T01:06:50.676Z,16.1
2016-05-29T01:07:00.676Z,16.1
2016-05-29T01:07:10.660Z,16.1
2016-05-29T01:07:20.504Z,16.1
2016-05-29T01:07:30.644Z,16.1
2016-05-29T01:07:40.644Z,16.1
2016-05-29T01:07:50.475Z,16.1
2016-05-29T01:08:00.646Z,16.1
2016-05-29T01:08:10.646Z,16.1
2016-05-29T01:08:20.631Z,16.1
2016-05-29T01:08:30.631Z,16.1
2016-05-29T01:08:40.631Z,16.1
2016-05-29T01:08:50.634Z,16.1
2016-05-29T01:09:00.634Z,16.1
2016-05-29T01:09:10.618Z,16.1
2016-05-29T01:09:20.618Z,16.1
2016-05-29T01:09:30.618Z,16.1
2016-05-29T01:09:40.618Z,16.1
2016-05-29T01:09:50.636Z,16.1
2016-05-29T01:10:00.620Z,16.1
2016-05-29T01:10:10.620Z,16.1
2016-05-29T01:10:20.620Z,16.1
2016-05-29T01:10:30.636Z,16.1
2016-05-29T01:10:40.605Z,16.1
2016-05-29T01:10:50.592Z,16.1
2016-05-29T01:11:00.623Z,16.2
2016-05-29T01:11:10.592Z,16.1
2016-05-29T01:11:20.592Z,16.1
2016-05-29T01:11:30.592Z,16.2
2016-05-29T01:11:40.608Z,16.2
2016-05-29T01:11:50.595Z,16.1
2016-05-29T01:12:00.595Z,16.1
2016-05-29T01:12:10.626Z,16.1
2016-05-29T01:12:20.579Z,16.1
2016-05-29T01:12:30.736Z,16.2
2016-05-29T01:12:40.579Z,16.1
2016-05-29T01:12:50.628Z,16.2
2016-05-29T01:13:00.613Z,16.2
2016-05-29T01:13:10.581Z,16.1
2016-05-29T01:13:20.581Z,16.1
2016-05-29T01:13:30.550Z,16.2
2016-05-29T01:13:40.566Z,16.1
2016-05-29T01:13:50.553Z,16.1
2016-05-29T01:14:00.412Z,16.1
2016-05-29T01:14:10.569Z,16.2
2016-05-29T01:14:20.569Z,16.2
2016-05-29T01:14:30.584Z,16.2
2016-05-29T01:14:40.553Z,16.2
2016-05-29T01:14:50.587Z,16.2
2016-05-29T01:15:00.556Z,16.2
2016-05-29T01:15:10.556Z,16.2
2016-05-29T01:15:20.572Z,16.2
2016-05-29T01:15:30.556Z,16.2
2016-05-29T01:15:40.587Z,16.2
2016-05-29T01:15:50.559Z,16.2
2016-05-29T01:16:00.559Z,16.2
2016-05-29T01:16:10.559Z,16.1
2016-05-29T01:16:20.575Z,16.2
2016-05-29T01:16:30.512Z,16.2
2016-05-29T01:16:40.512Z,16.2
2016-05-29T01:16:50.530Z,16.2
2016-05-29T01:17:00.545Z,16.2
2016-05-29T01:17:10.530Z,16.2
2016-05-29T01:17:20.514Z,16.2
2016-05-29T01:17:30.530Z,16.2
2016-05-29T01:17:40.514Z,16.2
2016-05-29T01:17:50.517Z,16.2
2016-05-29T01:18:00.533Z,16.1
2016-05-29T01:18:10.502Z,16.2
2016-05-29T01:18:20.502Z,16.1
2016-05-29T01:18:30.502Z,16.2
2016-05-29T01:18:40.502Z,16.1
2016-05-29T01:18:50.505Z,16.1
2016-05-29T01:19:00.520Z,16.2
2016-05-29T01:19:10.489Z,16.1
2016-05-29T01:19:20.489Z,16.1
2016-05-29T01:19:30.489Z,16.1
2016-05-29T01:19:40.473Z,16.1
2016-05-29T01:19:50.475Z,16.1
2016-05-29T01:20:00.475Z,16.1
2016-05-29T01:20:10.491Z,16.1
2016-05-29T01:20:20.944Z,16.1
2016-05-29T01:20:30.944Z,16.2
2016-05-29T01:20:40.475Z,16.1
2016-05-29T01:20:50.463Z,16.1
2016-05-29T01:21:00.494Z,16.1
2016-05-29T01:21:10.556Z,16.1
2016-05-29T01:21:21.385Z,16.1
2016-05-29T01:21:30.447Z,16.1
2016-05-29T01:21:40.447Z,16.1
2016-05-29T01:21:50.466Z,16.1
2016-05-29T01:22:00.466Z,16.1
2016-05-29T01:22:10.309Z,16.1
2016-05-29T01:22:20.450Z,16.1
2016-05-29T01:22:30.450Z,16.1
2016-05-29T01:22:40.450Z,16.1
2016-05-29T01:22:50.436Z,16.1
2016-05-29T01:23:00.436Z,16.1
2016-05-29T01:23:10.436Z,16.1
2016-05-29T01:23:20.436Z,16.1
2016-05-29T01:23:30.436Z,16
2016-05-29T01:23:40.436Z,16
2016-05-29T01:23:50.439Z,16
2016-05-29T01:24:00.424Z,16
2016-05-29T01:24:10.424Z,16
2016-05-29T01:24:20.408Z,16
2016-05-29T01:24:30.408Z,16
2016-05-29T01:24:40.439Z,16
2016-05-29T01:24:50.411Z,16
2016-05-29T01:25:00.411Z,16
2016-05-29T01:25:10.396Z,16
2016-05-29T01:25:20.396Z,16
2016-05-29T01:25:30.411Z,16
2016-05-29T01:25:40.396Z,16
2016-05-29T01:25:50.399Z,16
2016-05-29T01:26:00.414Z,16
2016-05-29T01:26:10.399Z,16
2016-05-29T01:26:20.399Z,15.9
2016-05-29T01:26:30.383Z,15.9
2016-05-29T01:26:40.383Z,15.9
2016-05-29T01:26:50.401Z,15.9
2016-05-29T01:27:00.385Z,15.9
2016-05-29T01:27:10.385Z,15.9
2016-05-29T01:27:20.385Z,15.8
2016-05-29T01:27:30.213Z,15.8
2016-05-29T01:27:40.385Z,15.8
2016-05-29T01:27:50.372Z,15.7
2016-05-29T01:28:00.216Z,15.7
2016-05-29T01:28:10.388Z,15.7
2016-05-29T01:28:20.372Z,15.7
2016-05-29T01:28:30.372Z,15.6
2016-05-29T01:28:40.216Z,15.6
2016-05-29T01:28:50.360Z,15.6
2016-05-29T01:29:00.360Z,15.6
2016-05-29T01:29:10.360Z,15.6
2016-05-29T01:29:20.375Z,15.5
2016-05-29T01:29:30.360Z,15.5
2016-05-29T01:29:40.375Z,15.4
2016-05-29T01:29:50.347Z,15.4
2016-05-29T01:30:00.347Z,15.4
2016-05-29T01:30:10.331Z,15.4
2016-05-29T01:30:20.331Z,15.4
2016-05-29T01:30:30.331Z,15.4
2016-05-29T01:30:40.175Z,15.4
2016-05-29T01:30:50.333Z,15.4
2016-05-29T01:31:00.333Z,15.4
2016-05-29T01:31:10.349Z,15.3
2016-05-29T01:31:20.333Z,15.3
2016-05-29T01:31:30.318Z,15.3
2016-05-29T01:31:40.333Z,15.3
2016-05-29T01:31:50.321Z,15.3
2016-05-29T01:32:00.321Z,15.3
2016-05-29T01:32:10.305Z,15.3
2016-05-29T01:32:20.305Z,15.3
2016-05-29T01:32:30.305Z,15.3
2016-05-29T01:32:40.336Z,15.3
2016-05-29T01:32:50.324Z,15.3
2016-05-29T01:33:00.308Z,15.3
2016-05-29T01:33:10.308Z,15.3
2016-05-29T01:33:20.308Z,15.3
2016-05-29T01:33:30.293Z,15.3
2016-05-29T01:33:40.136Z,15.3
2016-05-29T01:33:50.295Z,15.3
2016-05-29T01:34:00.295Z,15.3
2016-05-29T01:34:10.295Z,15.3
2016-05-29T01:34:20.295Z,15.2
2016-05-29T01:34:30.295Z,15.2
2016-05-29T01:34:40.295Z,15.2
2016-05-29T01:34:50.282Z,15.2
2016-05-29T01:35:00.266Z,15.2
2016-05-29T01:35:10.266Z,15.2
2016-05-29T01:35:21.173Z,15.2
2016-05-29T01:35:30.766Z,15.2
2016-05-29T01:35:40.110Z,15.2
2016-05-29T01:35:50.269Z,15.2
2016-05-29T01:36:00.269Z,15.2
2016-05-29T01:36:10.285Z,15.2
2016-05-29T01:36:20.347Z,15.2
2016-05-29T01:36:30.269Z,15.2
2016-05-29T01:36:40.097Z,15.1
2016-05-29T01:36:50.256Z,15.2
2016-05-29T01:37:00.099Z,15.2
2016-05-29T01:37:10.240Z,15.2
2016-05-29T01:37:20.240Z,15.2
2016-05-29T01:37:30.256Z,15.2
2016-05-29T01:37:40.256Z,15.2
2016-05-29T01:37:50.243Z,15.2
2016-05-29T01:38:00.259Z,15.2
2016-05-29T01:38:10.227Z,15.2
2016-05-29T01:38:20.243Z,15.1
2016-05-29T01:38:30.227Z,15.1
2016-05-29T01:38:40.227Z,15.1
2016-05-29T01:38:50.215Z,15.1
2016-05-29T01:39:00.215Z,15.2
2016-05-29T01:39:10.215Z,15.1
2016-05-29T01:39:20.215Z,15.2
2016-05-29T01:39:30.215Z,15.1
2016-05-29T01:39:40.215Z,15.1
2016-05-29T01:39:50.232Z,15.1
2016-05-29T01:40:00.201Z,15.1
2016-05-29T01:40:10.232Z,15.1
2016-05-29T01:40:20.201Z,15.1
2016-05-29T01:40:30.201Z,15.1
2016-05-29T01:40:40.201Z,15.1
2016-05-29T01:40:50.204Z,15.1
2016-05-29T01:41:00.048Z,15.1
2016-05-29T01:41:10.204Z,15.1
2016-05-29T01:41:20.048Z,15.1
2016-05-29T01:41:30.189Z,15.1
2016-05-29T01:41:40.173Z,15.1
2016-05-29T01:41:50.176Z,15.1
2016-05-29T01:42:00.176Z,15.1
2016-05-29T01:42:10.176Z,15.1
2016-05-29T01:42:20.176Z,15.1
2016-05-29T01:42:30.160Z,15.1
2016-05-29T01:42:40.160Z,15.1
2016-05-29T01:42:50.178Z,15.1
2016-05-29T01:43:00.162Z,15.1
2016-05-29T01:43:10.162Z,15.1
2016-05-29T01:43:20.006Z,15.1
2016-05-29T01:43:30.147Z,15.1
2016-05-29T01:43:40.178Z,15.1
2016-05-29T01:43:50.150Z,15.1
2016-05-29T01:44:00.150Z,15.1
2016-05-29T01:44:10.165Z,15.1
2016-05-29T01:44:20.150Z,15.1
2016-05-29T01:44:30.150Z,15.1
2016-05-29T01:44:40.150Z,15.1
2016-05-29T01:44:50.168Z,15.1
2016-05-29T01:45:00.137Z,15.1
2016-05-29T01:45:10.137Z,15
2016-05-29T01:45:20.137Z,15
2016-05-29T01:45:30.137Z,15
2016-05-29T01:45:40.137Z,15
2016-05-29T01:45:50.140Z,15
2016-05-29T01:46:00.124Z,15
2016-05-29T01:46:10.124Z,15
2016-05-29T01:46:20.124Z,15
2016-05-29T01:46:30.124Z,15
2016-05-29T01:46:40.124Z,15.1
2016-05-29T01:46:50.111Z,15.1
2016-05-29T01:47:00.111Z,15.1
2016-05-29T01:47:10.126Z,15.1
2016-05-29T01:47:20.111Z,15.1
2016-05-29T01:47:30.111Z,15.1
2016-05-29T01:47:40.111Z,15.1
2016-05-29T01:47:50.098Z,15.1
2016-05-29T01:48:00.098Z,15.1
2016-05-29T01:48:10.098Z,15.1
2016-05-29T01:48:20.083Z,15.1
2016-05-29T01:48:30.083Z,15.1
2016-05-29T01:48:40.083Z,15.1
2016-05-29T01:48:50.085Z,15.1
2016-05-29T01:49:00.085Z,15.1
2016-05-29T01:49:10.085Z,15.1
2016-05-29T01:49:20.085Z,15.1
2016-05-29T01:49:30.085Z,15.1
2016-05-29T01:49:40.085Z,15.1
2016-05-29T01:49:50.072Z,15.1
2016-05-29T01:50:00.072Z,15.1
2016-05-29T01:50:10.072Z,15.1
2016-05-29T01:50:20.072Z,15.1
2016-05-29T01:50:30.150Z,15.1
2016-05-29T01:50:40.072Z,15.1
2016-05-29T01:50:50.075Z,15.1
2016-05-29T01:50:59.919Z,15.1
2016-05-29T01:51:10.153Z,15.1
2016-05-29T01:51:19.903Z,15.1
2016-05-29T01:51:30.075Z,15.1
2016-05-29T01:51:40.044Z,15.1
2016-05-29T01:51:50.046Z,15.1
2016-05-29T01:52:00.046Z,15.1
2016-05-29T01:52:10.046Z,15.1
2016-05-29T01:52:20.046Z,15.1
2016-05-29T01:52:30.046Z,15.1
2016-05-29T01:52:40.030Z,15.1
2016-05-29T01:52:50.033Z,15.1
2016-05-29T01:53:00.033Z,15.1
2016-05-29T01:53:10.033Z,15.1
2016-05-29T01:53:20.033Z,15.1
2016-05-29T01:53:30.017Z,15.1
2016-05-29T01:53:40.017Z,15
2016-05-29T01:53:50.020Z,15
2016-05-29T01:54:00.020Z,15
2016-05-29T01:54:10.020Z,15
2016-05-29T01:54:20.020Z,15
2016-05-29T01:54:30.005Z,15
2016-05-29T01:54:40.020Z,15
2016-05-29T01:54:49.991Z,15
2016-05-29T01:55:00.007Z,15
2016-05-29T01:55:09.991Z,15
2016-05-29T01:55:19.991Z,15
2016-05-29T01:55:29.851Z,15
2016-05-29T01:55:39.851Z,15
2016-05-29T01:55:49.994Z,15
2016-05-29T01:55:59.994Z,15
2016-05-29T01:56:09.994Z,15
2016-05-29T01:56:19.979Z,15
2016-05-29T01:56:29.979Z,15
2016-05-29T01:56:39.979Z,15
2016-05-29T01:56:49.982Z,15
2016-05-29T01:56:59.825Z,15
2016-05-29T01:57:09.982Z,15
2016-05-29T01:57:19.982Z,15
2016-05-29T01:57:29.966Z,15
2016-05-29T01:57:39.966Z,15
2016-05-29T01:57:49.968Z,15
2016-05-29T01:57:59.812Z,15
2016-05-29T01:58:09.984Z,15
2016-05-29T01:58:19.812Z,15
2016-05-29T01:58:29.968Z,15
2016-05-29T01:58:39.952Z,15
2016-05-29T01:58:49.956Z,15
2016-05-29T01:58:59.941Z,15
2016-05-29T01:59:09.941Z,15
2016-05-29T01:59:19.941Z,15
2016-05-29T01:59:29.784Z,15
2016-05-29T01:59:39.941Z,15
2016-05-29T01:59:49.943Z,15
2016-05-29T01:59:59.943Z,15
2016-05-29T02:00:09.943Z,15
2016-05-29T02:00:19.927Z,15
2016-05-29T02:00:29.943Z,15
2016-05-29T02:00:39.927Z,15
2016-05-29T02:00:49.911Z,15
2016-05-29T02:00:59.914Z,15
2016-05-29T02:01:09.914Z,15
2016-05-29T02:01:19.930Z,15
2016-05-29T02:01:29.914Z,15
2016-05-29T02:01:39.930Z,15
2016-05-29T02:01:49.914Z,15.1
2016-05-29T02:01:59.916Z,15.1
2016-05-29T02:02:09.745Z,15.1
2016-05-29T02:02:19.901Z,15.1
2016-05-29T02:02:29.901Z,15
2016-05-29T02:02:39.901Z,15
2016-05-29T02:02:49.901Z,15
2016-05-29T02:02:59.748Z,15
2016-05-29T02:03:09.888Z,15
2016-05-29T02:03:19.888Z,15.1
2016-05-29T02:03:29.888Z,15.1
2016-05-29T02:03:39.888Z,15.1
2016-05-29T02:03:49.888Z,15.1
2016-05-29T02:03:59.891Z,15.1
2016-05-29T02:04:09.876Z,15.1
2016-05-29T02:04:19.876Z,15.1
2016-05-29T02:04:29.891Z,15.1
2016-05-29T02:04:39.876Z,15.1
2016-05-29T02:04:49.891Z,15.1
2016-05-29T02:04:59.879Z,15.1
2016-05-29T02:05:09.879Z,15.1
2016-05-29T02:05:19.879Z,15.1
2016-05-29T02:05:29.722Z,15.1
2016-05-29T02:05:39.847Z,15.1
2016-05-29T02:05:49.707Z,15.1
2016-05-29T02:05:59.710Z,15.1
2016-05-29T02:06:10.038Z,15.1
2016-05-29T02:06:20.085Z,15.1
2016-05-29T02:06:29.866Z,15.1
2016-05-29T02:06:39.694Z,15.1
2016-05-29T02:06:49.835Z,15.1
2016-05-29T02:06:59.836Z,15.1
2016-05-29T02:07:09.679Z,15.1
2016-05-29T02:07:19.836Z,15.1
2016-05-29T02:07:29.820Z,15.1
2016-05-29T02:07:39.836Z,15.1
2016-05-29T02:07:49.836Z,15.1
2016-05-29T02:07:59.824Z,15.1
2016-05-29T02:08:09.824Z,15.1
2016-05-29T02:08:19.683Z,15.1
2016-05-29T02:08:29.824Z,15.1
2016-05-29T02:08:39.824Z,15.1
2016-05-29T02:08:49.808Z,15.1
2016-05-29T02:08:59.827Z,15.1
2016-05-29T02:09:09.811Z,15.1
2016-05-29T02:09:19.811Z,15.1
2016-05-29T02:09:29.811Z,15.1
2016-05-29T02:09:39.811Z,15.1
2016-05-29T02:09:49.811Z,15.1
2016-05-29T02:09:59.798Z,15.1
2016-05-29T02:10:09.798Z,15.1
2016-05-29T02:10:19.782Z,15.1
2016-05-29T02:10:29.782Z,15.1
2016-05-29T02:10:39.626Z,15.1
2016-05-29T02:10:49.782Z,15.1
2016-05-29T02:10:59.784Z,15.1
2016-05-29T02:11:09.769Z,15.1
2016-05-29T02:11:19.784Z,15.1
2016-05-29T02:11:29.769Z,15.1
2016-05-29T02:11:39.769Z,15.1
2016-05-29T02:11:49.784Z,15
2016-05-29T02:11:59.773Z,15
2016-05-29T02:12:09.773Z,15
2016-05-29T02:12:19.773Z,15
2016-05-29T02:12:29.757Z,15
2016-05-29T02:12:39.757Z,15.1
2016-05-29T02:12:49.773Z,15.1
2016-05-29T02:12:59.775Z,15.1
2016-05-29T02:13:09.759Z,15
2016-05-29T02:13:19.759Z,15.1
2016-05-29T02:13:29.743Z,15
2016-05-29T02:13:39.743Z,15
2016-05-29T02:13:49.743Z,15
2016-05-29T02:13:59.731Z,15
2016-05-29T02:14:09.746Z,15
2016-05-29T02:14:19.731Z,15
2016-05-29T02:14:29.746Z,15
2016-05-29T02:14:39.731Z,15
2016-05-29T02:14:49.731Z,15
2016-05-29T02:14:59.733Z,15
2016-05-29T02:15:09.576Z,15